createdAt,value
2023-04-21T00:01:24.723Z,2.70
2023-04-21T00:02:57.947Z,2.60
2023-04-21T00:04:32.648Z,2.60
2023-04-21T00:06:07.298Z,2.70
2023-04-21T00:07:40.471Z,2.60
2023-04-21T00:09:13.963Z,2.60
2023-04-21T00:10:47.704Z,2.60
2023-04-21T00:12:20.851Z,2.60
2023-04-21T00:13:53.879Z,2.70
2023-04-21T00:15:27.097Z,2.70
2023-04-21T00:17:00.299Z,2.70
2023-04-21T00:18:33.370Z,2.70
2023-04-21T00:20:09.028Z,2.70
2023-04-21T00:21:42.111Z,2.60
2023-04-21T00:23:15.250Z,2.60
2023-04-21T00:24:49.710Z,2.50
2023-04-21T00:26:22.833Z,2.50
2023-04-21T00:27:56.799Z,2.40
2023-04-21T00:29:29.824Z,2.40
2023-04-21T00:31:02.276Z,2.40
2023-04-21T00:32:35.608Z,2.30
2023-04-21T00:34:07.765Z,2.30
2023-04-21T00:35:40.833Z,2.30
2023-04-21T00:37:13.941Z,2.30
2023-04-21T00:38:46.970Z,2.30
2023-04-21T00:40:22.408Z,2.20
2023-04-21T00:41:55.729Z,2.20
2023-04-21T00:43:29.025Z,2.20
2023-04-21T00:45:02.096Z,2.10
2023-04-21T00:46:37.992Z,2.10
2023-04-21T00:48:12.118Z,2.10
2023-04-21T00:49:46.216Z,2.10
2023-04-21T00:51:19.327Z,2.10
2023-04-21T00:52:52.778Z,2.10
2023-04-21T00:54:26.886Z,2.00
2023-04-21T00:56:01.542Z,2.00
2023-04-21T00:57:34.612Z,2.00
2023-04-21T00:59:07.650Z,2.00
2023-04-21T01:00:39.859Z,2.00
2023-04-21T01:02:13.406Z,2.60
2023-04-21T01:03:47.650Z,2.10
2023-04-21T01:05:21.045Z,1.90
2023-04-21T01:06:53.195Z,2.00
2023-04-21T01:08:27.192Z,2.00
2023-04-21T01:10:00.963Z,2.10
2023-04-21T01:11:35.536Z,2.10
2023-04-21T01:13:08.605Z,2.10
2023-04-21T01:14:42.524Z,2.00
2023-04-21T01:16:20.140Z,1.90
2023-04-21T01:17:54.220Z,1.90
2023-04-21T01:19:30.234Z,1.90
2023-04-21T01:21:04.651Z,1.80
2023-04-21T01:22:41.642Z,1.80
2023-04-21T01:24:14.706Z,1.80
2023-04-21T01:25:51.242Z,1.80
2023-04-21T01:27:25.688Z,1.80
2023-04-21T01:29:00.295Z,1.80
2023-04-21T01:30:33.457Z,1.80
2023-04-21T01:32:09.191Z,1.80
2023-04-21T01:33:42.281Z,1.80
2023-04-21T01:35:15.399Z,1.70
2023-04-21T01:36:47.496Z,1.70
2023-04-21T01:38:23.765Z,1.70
2023-04-21T01:39:59.794Z,1.80
2023-04-21T01:41:32.872Z,1.70
2023-04-21T01:43:06.390Z,1.70
2023-04-21T01:44:40.080Z,1.70
2023-04-21T01:46:13.151Z,1.70
2023-04-21T01:47:46.210Z,1.70
2023-04-21T01:49:19.146Z,1.80
2023-04-21T01:50:52.544Z,1.90
2023-04-21T01:52:24.768Z,1.90
2023-04-21T01:54:01.548Z,1.80
2023-04-21T01:55:34.823Z,1.90
2023-04-21T01:57:08.173Z,1.90
2023-04-21T01:58:41.397Z,1.90
2023-04-21T02:00:15.784Z,2.00
2023-04-21T02:01:48.839Z,2.10
2023-04-21T02:03:21.314Z,2.10
2023-04-21T02:04:54.530Z,2.30
2023-04-21T02:06:26.599Z,2.30
2023-04-21T02:07:59.817Z,2.30
2023-04-21T02:09:34.494Z,2.20
2023-04-21T02:11:07.521Z,2.30
2023-04-21T02:12:40.644Z,2.40
2023-04-21T02:14:14.780Z,2.20
2023-04-21T02:15:47.876Z,1.50
2023-04-21T02:17:20.947Z,2.10
2023-04-21T02:18:54.110Z,2.20
2023-04-21T02:20:26.436Z,2.10
2023-04-21T02:21:59.648Z,2.10
2023-04-21T02:23:32.732Z,2.30
2023-04-21T02:25:07.997Z,2.00
2023-04-21T02:26:41.101Z,1.80
2023-04-21T02:28:14.143Z,1.80
2023-04-21T02:29:47.243Z,1.60
2023-04-21T02:31:19.427Z,1.70
2023-04-21T02:32:54.878Z,1.70
2023-04-21T02:34:27.075Z,1.60
2023-04-21T02:36:00.188Z,1.50
2023-04-21T02:37:33.225Z,1.50
2023-04-21T02:39:06.446Z,1.40
2023-04-21T02:40:41.056Z,1.40
2023-04-21T02:42:13.159Z,1.40
2023-04-21T02:46:52.802Z,1.40
2023-04-21T02:50:00.359Z,1.10
2023-04-21T02:51:33.506Z,1.20
2023-04-21T02:53:06.561Z,1.10
2023-04-21T02:54:39.691Z,1.00
2023-04-21T02:56:14.116Z,1.20
2023-04-21T02:57:47.193Z,1.00
2023-04-21T02:59:19.459Z,1.20
2023-04-21T03:00:53.024Z,1.10
2023-04-21T03:02:26.436Z,1.10
2023-04-21T03:03:59.646Z,1.20
2023-04-21T03:05:31.789Z,1.10
2023-04-21T03:07:05.453Z,1.10
2023-04-21T03:08:38.682Z,1.10
2023-04-21T03:11:48.136Z,1.10
2023-04-21T03:13:21.900Z,1.20
2023-04-21T03:14:56.199Z,1.20
2023-04-21T03:16:29.554Z,1.10
2023-04-21T03:18:02.889Z,1.10
2023-04-21T03:19:36.050Z,1.20
2023-04-21T03:21:09.212Z,1.20
2023-04-21T03:22:41.411Z,1.40
2023-04-21T03:24:14.634Z,1.50
2023-04-21T03:25:46.755Z,1.40
2023-04-21T03:27:21.182Z,1.40
2023-04-21T03:28:54.226Z,1.30
2023-04-21T03:30:27.489Z,1.20
2023-04-21T03:32:00.593Z,1.10
2023-04-21T03:33:32.766Z,1.10
2023-04-21T03:35:06.406Z,1.00
2023-04-21T03:38:14.254Z,0.80
2023-04-21T03:39:47.299Z,0.70
2023-04-21T03:42:55.982Z,0.80
2023-04-21T03:44:28.771Z,0.90
2023-04-21T03:46:01.873Z,0.80
2023-04-21T03:47:35.213Z,0.80
2023-04-21T03:49:08.265Z,0.70
2023-04-21T03:50:41.306Z,0.70
2023-04-21T03:53:47.788Z,0.90
2023-04-21T03:55:20.976Z,0.60
2023-04-21T03:56:53.084Z,0.80
2023-04-21T04:00:00.987Z,0.60
2023-04-21T04:01:35.434Z,0.70
2023-04-21T04:03:08.676Z,0.50
2023-04-21T04:04:42.135Z,0.50
2023-04-21T04:06:15.305Z,0.60
2023-04-21T04:07:48.416Z,0.80
2023-04-21T04:09:21.568Z,0.90
2023-04-21T04:10:55.267Z,0.90
2023-04-21T04:12:28.348Z,0.90
2023-04-21T04:14:01.891Z,0.80
2023-04-21T04:15:35.096Z,0.80
2023-04-21T04:17:08.259Z,1.00
2023-04-21T04:18:41.314Z,0.90
2023-04-21T04:20:14.439Z,1.00
2023-04-21T04:21:49.091Z,1.00
2023-04-21T04:23:22.442Z,1.00
2023-04-21T04:24:57.294Z,1.10
2023-04-21T04:26:30.465Z,0.90
2023-04-21T04:28:03.501Z,1.20
2023-04-21T04:29:37.912Z,1.30
2023-04-21T04:31:11.056Z,1.30
2023-04-21T04:32:44.305Z,1.40
2023-04-21T04:34:17.418Z,1.40
2023-04-21T04:35:51.169Z,1.60
2023-04-21T04:37:25.343Z,1.60
2023-04-21T04:38:58.473Z,1.70
2023-04-21T04:40:33.289Z,1.70
2023-04-21T04:42:08.927Z,1.80
2023-04-21T04:43:42.827Z,1.80
2023-04-21T04:45:16.698Z,1.50
2023-04-21T04:46:49.911Z,2.00
2023-04-21T04:48:22.972Z,2.30
2023-04-21T04:49:56.060Z,2.40
2023-04-21T04:51:29.159Z,2.50
2023-04-21T04:53:02.229Z,2.60
2023-04-21T04:54:35.618Z,2.80
2023-04-21T04:56:08.739Z,2.80
2023-04-21T04:57:41.846Z,3.00
2023-04-21T04:59:15.780Z,3.20
2023-04-21T05:00:50.254Z,3.50
2023-04-21T05:02:24.091Z,3.50
2023-04-21T05:03:57.956Z,3.70
2023-04-21T05:05:31.298Z,3.80
2023-04-21T05:07:06.066Z,3.60
2023-04-21T05:08:40.188Z,4.50
2023-04-21T05:10:13.218Z,5.50
2023-04-21T05:11:46.302Z,5.90
2023-04-21T05:13:19.309Z,6.10
2023-04-21T05:14:52.383Z,5.90
2023-04-21T05:16:26.849Z,5.70
2023-04-21T05:18:00.055Z,5.80
2023-04-21T05:19:35.956Z,5.90
2023-04-21T05:21:09.045Z,5.90
2023-04-21T05:22:42.591Z,5.90
2023-04-21T05:24:14.948Z,6.20
2023-04-21T05:27:21.530Z,6.20
2023-04-21T05:32:05.673Z,6.30
2023-04-21T05:33:39.261Z,7.00
2023-04-21T05:35:12.355Z,7.00
2023-04-21T05:36:45.429Z,7.50
2023-04-21T05:38:18.500Z,7.40
2023-04-21T05:42:59.316Z,10.10
2023-04-21T18:48:20.110Z,13.10
2023-04-21T18:49:53.197Z,13.10
2023-04-21T18:51:27.420Z,13.00
2023-04-21T18:53:00.981Z,12.90
2023-04-21T18:54:34.094Z,12.90
2023-04-21T18:56:08.567Z,12.80
2023-04-21T18:57:41.638Z,12.60
2023-04-21T18:59:14.689Z,12.50
2023-04-21T19:00:47.813Z,12.50
2023-04-21T19:02:21.040Z,12.50
2023-04-21T19:03:54.487Z,12.50
2023-04-21T19:05:29.802Z,12.50
2023-04-21T19:07:06.159Z,12.50
2023-04-21T19:08:42.624Z,12.50
2023-04-21T19:10:16.378Z,12.40
2023-04-21T19:11:50.843Z,12.40
2023-04-21T19:13:24.076Z,12.30
2023-04-21T19:14:57.391Z,12.10
2023-04-21T19:16:30.867Z,12.00
2023-04-21T19:18:03.942Z,11.80
2023-04-21T19:19:36.989Z,11.70
2023-04-21T19:21:13.437Z,11.60
2023-04-21T19:22:46.542Z,11.40
2023-04-21T19:24:19.653Z,11.30
2023-04-21T19:25:55.045Z,11.20
2023-04-21T19:27:30.341Z,11.10
2023-04-21T19:29:03.713Z,11.00
2023-04-21T19:30:36.786Z,10.90
2023-04-21T19:32:10.000Z,10.80
2023-04-21T19:33:43.115Z,10.80
2023-04-21T19:35:16.543Z,10.70
2023-04-21T19:36:51.625Z,10.50
2023-04-21T19:38:24.735Z,10.40
2023-04-21T19:39:57.830Z,10.20
2023-04-21T19:41:31.021Z,10.20
2023-04-21T19:43:05.576Z,10.10
2023-04-21T19:44:39.765Z,10.00
2023-04-21T19:46:13.850Z,9.90
2023-04-21T19:47:47.691Z,9.80
2023-04-21T19:49:20.739Z,9.70
2023-04-21T19:50:53.755Z,9.60
2023-04-21T19:52:26.866Z,9.50
2023-04-21T19:54:10.896Z,9.40
2023-04-21T19:55:46.432Z,9.30
2023-04-21T19:57:19.530Z,9.20
2023-04-21T19:58:53.986Z,9.20
2023-04-21T20:00:27.323Z,9.10
2023-04-21T20:02:00.510Z,9.00
2023-04-21T20:03:34.087Z,9.00
2023-04-21T20:05:09.394Z,8.90
2023-04-21T20:06:42.590Z,8.90
2023-04-21T20:08:16.281Z,8.80
2023-04-21T20:09:49.770Z,8.70
2023-04-21T20:11:23.168Z,8.60
2023-04-21T20:12:56.327Z,8.50
2023-04-21T20:14:31.314Z,8.50
2023-04-21T20:16:04.408Z,8.40
2023-04-21T20:17:37.589Z,8.30
2023-04-21T20:19:11.277Z,8.30
2023-04-21T20:20:44.377Z,8.20
2023-04-21T20:22:17.568Z,8.20
2023-04-21T20:23:50.669Z,8.10
2023-04-21T20:25:23.713Z,8.10
2023-04-21T20:26:57.130Z,8.20
2023-04-21T20:28:30.420Z,8.20
2023-04-21T20:30:05.503Z,8.20
2023-04-21T20:31:38.655Z,8.30
2023-04-21T20:33:11.880Z,8.20
2023-04-21T20:34:45.011Z,8.20
2023-04-21T20:36:18.455Z,8.20
2023-04-21T20:37:53.385Z,8.10
2023-04-21T20:39:26.433Z,8.10
2023-04-21T20:40:59.784Z,8.10
2023-04-21T20:42:33.382Z,8.20
2023-04-21T20:44:06.632Z,8.20
2023-04-21T20:45:41.356Z,8.20
2023-04-21T20:47:14.662Z,8.30
2023-04-21T20:48:47.803Z,8.20
2023-04-21T20:50:21.307Z,8.20
2023-04-21T20:51:58.536Z,8.20
2023-04-21T20:53:31.659Z,8.20
2023-04-21T20:55:05.214Z,8.10
2023-04-21T20:56:38.375Z,8.20
2023-04-21T20:58:11.723Z,8.20
2023-04-21T20:59:44.929Z,8.20
2023-04-21T21:01:19.537Z,8.20
2023-04-21T21:02:52.766Z,8.10
2023-04-21T21:04:26.065Z,8.00
2023-04-21T21:05:59.247Z,7.90
2023-04-21T21:07:32.524Z,7.90
2023-04-21T21:09:06.014Z,7.80
2023-04-21T21:10:39.160Z,7.70
2023-04-21T21:12:12.222Z,7.70
2023-04-21T21:13:45.458Z,7.60
2023-04-21T21:15:18.654Z,7.50
2023-04-21T21:16:54.477Z,7.50
2023-04-21T21:18:27.840Z,7.40
2023-04-21T21:20:01.358Z,7.40
2023-04-21T21:21:34.507Z,7.30
2023-04-21T21:23:07.564Z,7.30
2023-04-21T21:24:40.708Z,7.30
2023-04-21T21:26:13.810Z,7.20
2023-04-21T21:27:46.895Z,7.20
2023-04-21T21:29:19.930Z,7.10
2023-04-21T21:30:52.994Z,7.10
2023-04-21T21:32:27.460Z,7.10
2023-04-21T21:34:01.211Z,7.10
2023-04-21T21:35:34.350Z,7.00
2023-04-21T21:37:07.453Z,7.00
2023-04-21T21:38:40.867Z,6.90
2023-04-21T21:40:14.256Z,6.90
2023-04-21T21:41:47.315Z,6.90
2023-04-21T21:43:20.331Z,6.80
2023-04-21T21:44:53.378Z,6.80
2023-04-21T21:46:26.544Z,6.80
2023-04-21T21:48:01.216Z,6.80
2023-04-21T21:49:34.331Z,6.80
2023-04-21T21:51:07.477Z,6.80
2023-04-21T21:52:40.573Z,6.80
2023-04-21T21:54:14.180Z,6.80
2023-04-21T21:55:47.226Z,6.70
2023-04-21T21:57:20.485Z,6.70
2023-04-21T21:58:53.957Z,6.70
2023-04-21T22:00:27.132Z,6.60
2023-04-21T22:02:00.416Z,6.60
2023-04-21T22:03:36.268Z,6.60
2023-04-21T22:05:10.373Z,6.60
2023-04-21T22:06:45.522Z,6.50
2023-04-21T22:08:18.572Z,6.50
2023-04-21T22:09:51.640Z,6.50
2023-04-21T22:11:24.835Z,6.50
2023-04-21T22:12:57.942Z,6.40
2023-04-21T22:14:31.199Z,6.40
2023-04-21T22:16:04.309Z,6.40
2023-04-21T22:17:37.961Z,6.30
2023-04-21T22:19:12.583Z,6.30
2023-04-21T22:20:45.730Z,6.40
2023-04-21T22:22:18.851Z,6.40
2023-04-21T22:23:50.913Z,6.30
2023-04-21T22:25:26.918Z,6.20
2023-04-21T22:27:00.003Z,6.20
2023-04-21T22:28:32.069Z,6.20
2023-04-21T22:30:05.711Z,6.10
2023-04-21T22:31:38.977Z,6.00
2023-04-21T22:33:12.152Z,5.90
2023-04-21T22:34:46.675Z,5.90
2023-04-21T22:36:19.822Z,5.90
2023-04-21T22:37:52.865Z,5.80
2023-04-21T22:39:25.975Z,5.80
2023-04-21T22:40:59.120Z,5.70
2023-04-21T22:42:32.291Z,5.60
2023-04-21T22:44:05.749Z,5.50
2023-04-21T22:45:38.841Z,5.50
2023-04-21T22:47:12.073Z,5.40
2023-04-21T22:48:46.577Z,5.40
2023-04-21T22:50:22.473Z,5.40
2023-04-21T22:51:54.624Z,5.30
2023-04-21T22:53:27.668Z,5.30
2023-04-21T22:55:00.700Z,5.20
2023-04-21T22:56:33.730Z,5.20
2023-04-21T22:58:06.831Z,5.10
2023-04-21T22:59:40.229Z,5.10
2023-04-21T23:01:13.525Z,5.10
2023-04-21T23:02:46.736Z,5.00
2023-04-21T23:04:19.818Z,5.00
2023-04-21T23:05:54.322Z,5.00
2023-04-21T23:07:27.342Z,4.90
2023-04-21T23:09:00.439Z,4.90
2023-04-21T23:10:33.588Z,4.90
2023-04-21T23:12:06.983Z,4.90
2023-04-21T23:13:40.553Z,4.80
2023-04-21T23:15:13.614Z,4.80
2023-04-21T23:16:46.748Z,4.80
2023-04-21T23:18:19.797Z,4.80
2023-04-21T23:19:52.851Z,4.80
2023-04-21T23:21:27.282Z,4.80
2023-04-21T23:23:00.340Z,4.80
2023-04-21T23:24:33.468Z,4.80
2023-04-21T23:26:06.797Z,4.90
2023-04-21T23:27:39.841Z,4.90
2023-04-21T23:29:12.876Z,4.90
2023-04-21T23:30:46.145Z,4.90
2023-04-21T23:32:19.224Z,5.00
2023-04-21T23:33:52.310Z,5.00
2023-04-21T23:35:25.532Z,5.00
2023-04-21T23:36:59.975Z,5.00
2023-04-21T23:38:33.048Z,5.00
2023-04-21T23:40:10.934Z,5.00
2023-04-21T23:41:44.052Z,5.00
2023-04-21T23:43:17.157Z,5.00
2023-04-21T23:44:49.261Z,5.00
2023-04-21T23:46:22.405Z,5.10
2023-04-21T23:47:55.505Z,5.10
2023-04-21T23:49:29.010Z,5.20
2023-04-21T23:51:01.319Z,5.20
2023-04-21T23:52:35.987Z,5.20
2023-04-21T23:54:08.856Z,5.20
2023-04-21T23:55:42.260Z,5.10
2023-04-21T23:57:14.416Z,5.10
2023-04-21T23:58:47.446Z,5.10
